sensor_id;sensor_type;location;lat;lon;timestamp;pressure;altitude;pressure_sealevel;temperature;humidity
6694;BME280;3384;42.628;23.380;2023-01-28T00:01:15;93514.81;;;2.83;100.00
6694;BME280;3384;42.628;23.380;2023-01-28T00:03:42;93526.28;;;2.53;100.00
6694;BME280;3384;42.628;23.380;2023-01-28T00:06:13;93510.31;;;2.78;100.00
6694;BME280;3384;42.628;23.380;2023-01-28T00:08:41;93519.75;;;2.94;100.00
6694;BME280;3384;42.628;23.380;2023-01-28T00:11:10;93527.88;;;3.18;100.00
6694;BME280;3384;42.628;23.380;2023-01-28T00:13:39;93526.31;;;3.12;100.00
6694;BME280;3384;42.628;23.380;2023-01-28T00:16:07;93533.06;;;2.84;100.00
6694;BME280;3384;42.628;23.380;2023-01-28T00:18:34;93532.41;;;3.08;100.00
6694;BME280;3384;42.628;23.380;2023-01-28T00:21:02;93539.91;;;2.85;100.00
6694;BME280;3384;42.628;23.380;2023-01-28T00:23:32;93540.97;;;2.89;100.00
6694;BME280;3384;42.628;23.380;2023-01-28T00:26:00;93538.88;;;2.81;100.00
6694;BME280;3384;42.628;23.380;2023-01-28T00:28:32;93534.28;;;3.07;100.00
6694;BME280;3384;42.628;23.380;2023-01-28T00:31:06;93543.78;;;3.62;100.00
6694;BME280;3384;42.628;23.380;2023-01-28T00:33:34;93544.28;;;3.15;100.00
6694;BME280;3384;42.628;23.380;2023-01-28T00:36:01;93540.13;;;3.86;100.00
6694;BME280;3384;42.628;23.380;2023-01-28T00:38:31;93532.59;;;3.70;100.00
6694;BME280;3384;42.628;23.380;2023-01-28T00:41:09;93543.03;;;3.51;100.00
6694;BME280;3384;42.628;23.380;2023-01-28T00:43:37;93544.47;;;3.77;100.00
6694;BME280;3384;42.628;23.380;2023-01-28T00:46:08;93550.03;;;3.32;100.00
6694;BME280;3384;42.628;23.380;2023-01-28T00:48:36;93551.69;;;3.67;100.00
6694;BME280;3384;42.628;23.380;2023-01-28T00:51:03;93554.19;;;3.92;100.00
6694;BME280;3384;42.628;23.380;2023-01-28T00:53:30;93554.09;;;3.58;100.00
6694;BME280;3384;42.628;23.380;2023-01-28T00:55:58;93552.69;;;3.32;100.00
6694;BME280;3384;42.628;23.380;2023-01-28T00:58:28;93551.34;;;3.35;100.00
6694;BME280;3384;42.628;23.380;2023-01-28T01:00:56;93554.28;;;2.64;100.00
6694;BME280;3384;42.628;23.380;2023-01-28T01:03:31;93558.00;;;2.48;100.00
6694;BME280;3384;42.628;23.380;2023-01-28T01:05:59;93562.00;;;2.16;100.00
6694;BME280;3384;42.628;23.380;2023-01-28T01:08:28;93556.34;;;2.77;100.00
6694;BME280;3384;42.628;23.380;2023-01-28T01:10:59;93547.66;;;2.67;100.00
6694;BME280;3384;42.628;23.380;2023-01-28T01:13:26;93549.72;;;2.75;100.00
6694;BME280;3384;42.628;23.380;2023-01-28T01:16:03;93555.28;;;2.73;100.00
6694;BME280;3384;42.628;23.380;2023-01-28T01:18:34;93544.22;;;2.71;100.00
6694;BME280;3384;42.628;23.380;2023-01-28T01:21:01;93556.16;;;2.49;100.00
6694;BME280;3384;42.628;23.380;2023-01-28T01:23:29;93555.25;;;2.88;100.00
6694;BME280;3384;42.628;23.380;2023-01-28T01:25:56;93541.66;;;2.36;100.00
6694;BME280;3384;42.628;23.380;2023-01-28T01:28:25;93558.94;;;2.87;100.00
6694;BME280;3384;42.628;23.380;2023-01-28T01:30:58;93553.22;;;2.70;100.00
6694;BME280;3384;42.628;23.380;2023-01-28T01:33:27;93552.06;;;2.92;100.00
6694;BME280;3384;42.628;23.380;2023-01-28T01:35:54;93548.47;;;2.57;100.00
6694;BME280;3384;42.628;23.380;2023-01-28T01:38:21;93558.50;;;2.70;100.00
6694;BME280;3384;42.628;23.380;2023-01-28T01:40:48;93552.91;;;2.72;100.00
6694;BME280;3384;42.628;23.380;2023-01-28T01:43:16;93559.25;;;2.86;100.00
6694;BME280;3384;42.628;23.380;2023-01-28T01:45:43;93553.25;;;2.50;100.00
6694;BME280;3384;42.628;23.380;2023-01-28T01:48:15;93552.44;;;2.50;100.00
6694;BME280;3384;42.628;23.380;2023-01-28T01:50:52;93552.72;;;2.53;100.00
6694;BME280;3384;42.628;23.380;2023-01-28T01:53:21;93554.78;;;2.71;100.00
6694;BME280;3384;42.628;23.380;2023-01-28T01:55:52;93572.38;;;3.60;100.00
6694;BME280;3384;42.628;23.380;2023-01-28T01:58:24;93554.25;;;2.69;100.00
6694;BME280;3384;42.628;23.380;2023-01-28T02:00:55;93557.50;;;2.46;100.00
6694;BME280;3384;42.628;23.380;2023-01-28T02:03:25;93579.94;;;2.44;100.00
6694;BME280;3384;42.628;23.380;2023-01-28T02:05:55;93569.94;;;2.41;100.00
6694;BME280;3384;42.628;23.380;2023-01-28T02:08:22;93574.97;;;1.97;100.00
6694;BME280;3384;42.628;23.380;2023-01-28T02:10:52;93570.13;;;2.69;100.00
6694;BME280;3384;42.628;23.380;2023-01-28T02:13:23;93576.81;;;2.32;100.00
6694;BME280;3384;42.628;23.380;2023-01-28T02:15:50;93578.09;;;2.49;100.00
6694;BME280;3384;42.628;23.380;2023-01-28T02:18:17;93582.22;;;2.96;100.00
6694;BME280;3384;42.628;23.380;2023-01-28T02:24:06;93571.69;;;2.75;100.00
6694;BME280;3384;42.628;23.380;2023-01-28T02:26:53;93575.22;;;3.25;100.00
6694;BME280;3384;42.628;23.380;2023-01-28T02:29:26;93586.56;;;2.41;100.00
6694;BME280;3384;42.628;23.380;2023-01-28T02:32:02;93569.13;;;2.50;100.00
6694;BME280;3384;42.628;23.380;2023-01-28T02:34:35;93583.88;;;2.71;100.00
6694;BME280;3384;42.628;23.380;2023-01-28T02:37:08;93575.56;;;3.08;100.00
6694;BME280;3384;42.628;23.380;2023-01-28T02:39:44;93583.69;;;3.22;100.00
6694;BME280;3384;42.628;23.380;2023-01-28T02:42:15;93595.09;;;4.14;100.00
6694;BME280;3384;42.628;23.380;2023-01-28T02:44:45;93593.78;;;3.73;100.00
6694;BME280;3384;42.628;23.380;2023-01-28T02:47:13;93585.63;;;3.65;100.00
6694;BME280;3384;42.628;23.380;2023-01-28T02:49:59;93591.19;;;4.02;100.00
6694;BME280;3384;42.628;23.380;2023-01-28T02:52:47;93600.56;;;3.89;100.00
6694;BME280;3384;42.628;23.380;2023-01-28T02:55:42;93592.66;;;3.79;100.00
6694;BME280;3384;42.628;23.380;2023-01-28T02:58:18;93601.09;;;3.86;100.00
6694;BME280;3384;42.628;23.380;2023-01-28T03:00:55;93585.56;;;3.75;100.00
6694;BME280;3384;42.628;23.380;2023-01-28T03:03:32;93581.56;;;3.72;100.00
6694;BME280;3384;42.628;23.380;2023-01-28T03:06:03;93583.63;;;3.85;100.00
6694;BME280;3384;42.628;23.380;2023-01-28T03:08:35;93586.53;;;2.61;100.00
6694;BME280;3384;42.628;23.380;2023-01-28T03:11:21;93595.03;;;2.43;100.00
6694;BME280;3384;42.628;23.380;2023-01-28T03:14:06;93587.59;;;2.65;100.00
6694;BME280;3384;42.628;23.380;2023-01-28T03:16:55;93595.81;;;2.44;100.00
6694;BME280;3384;42.628;23.380;2023-01-28T03:19:42;93610.91;;;3.37;100.00
6694;BME280;3384;42.628;23.380;2023-01-28T03:22:29;93597.94;;;2.27;100.00
6694;BME280;3384;42.628;23.380;2023-01-28T03:25:17;93592.09;;;2.70;100.00
6694;BME280;3384;42.628;23.380;2023-01-28T03:28:06;93594.97;;;2.73;100.00
6694;BME280;3384;42.628;23.380;2023-01-28T03:30:56;93583.59;;;2.78;100.00
6694;BME280;3384;42.628;23.380;2023-01-28T03:33:43;93602.91;;;2.78;100.00
6694;BME280;3384;42.628;23.380;2023-01-28T03:36:29;93591.00;;;2.81;100.00
6694;BME280;3384;42.628;23.380;2023-01-28T03:39:14;93598.38;;;2.89;100.00
6694;BME280;3384;42.628;23.380;2023-01-28T03:41:41;93593.25;;;3.18;100.00
6694;BME280;3384;42.628;23.380;2023-01-28T03:44:08;93598.72;;;2.67;100.00
6694;BME280;3384;42.628;23.380;2023-01-28T03:46:52;93588.06;;;2.92;100.00
6694;BME280;3384;42.628;23.380;2023-01-28T03:49:20;93591.19;;;3.05;100.00
6694;BME280;3384;42.628;23.380;2023-01-28T03:51:47;93612.50;;;2.34;100.00
6694;BME280;3384;42.628;23.380;2023-01-28T03:54:14;93594.78;;;2.25;100.00
6694;BME280;3384;42.628;23.380;2023-01-28T03:56:40;93607.41;;;2.78;100.00
6694;BME280;3384;42.628;23.380;2023-01-28T03:59:07;93607.19;;;2.54;100.00
6694;BME280;3384;42.628;23.380;2023-01-28T04:01:34;93604.81;;;2.13;100.00
6694;BME280;3384;42.628;23.380;2023-01-28T04:04:01;93610.38;;;2.36;100.00
6694;BME280;3384;42.628;23.380;2023-01-28T04:06:29;93616.19;;;2.38;100.00
6694;BME280;3384;42.628;23.380;2023-01-28T04:08:56;93618.56;;;2.40;100.00
6694;BME280;3384;42.628;23.380;2023-01-28T04:11:25;93615.94;;;2.55;100.00
6694;BME280;3384;42.628;23.380;2023-01-28T04:13:52;93608.53;;;2.27;100.00
6694;BME280;3384;42.628;23.380;2023-01-28T04:16:19;93630.44;;;1.92;100.00
6694;BME280;3384;42.628;23.380;2023-01-28T04:18:46;93617.75;;;2.49;100.00
6694;BME280;3384;42.628;23.380;2023-01-28T04:21:13;93628.09;;;2.31;100.00
6694;BME280;3384;42.628;23.380;2023-01-28T04:23:41;93617.66;;;2.94;100.00
6694;BME280;3384;42.628;23.380;2023-01-28T04:26:08;93630.19;;;2.09;100.00
6694;BME280;3384;42.628;23.380;2023-01-28T04:28:35;93635.78;;;2.22;100.00
6694;BME280;3384;42.628;23.380;2023-01-28T04:31:02;93626.25;;;2.56;100.00
6694;BME280;3384;42.628;23.380;2023-01-28T04:33:29;93630.47;;;2.47;100.00
6694;BME280;3384;42.628;23.380;2023-01-28T04:35:55;93640.78;;;2.59;100.00
6694;BME280;3384;42.628;23.380;2023-01-28T04:38:22;93644.22;;;2.64;100.00
6694;BME280;3384;42.628;23.380;2023-01-28T04:40:51;93646.84;;;2.59;100.00
6694;BME280;3384;42.628;23.380;2023-01-28T04:43:19;93638.41;;;2.02;100.00
6694;BME280;3384;42.628;23.380;2023-01-28T04:45:46;93642.81;;;1.67;100.00
6694;BME280;3384;42.628;23.380;2023-01-28T04:48:13;93641.56;;;1.94;100.00
6694;BME280;3384;42.628;23.380;2023-01-28T04:50:41;93648.94;;;1.97;100.00
6694;BME280;3384;42.628;23.380;2023-01-28T04:53:08;93645.00;;;2.05;100.00
6694;BME280;3384;42.628;23.380;2023-01-28T04:55:35;93645.47;;;1.77;100.00
6694;BME280;3384;42.628;23.380;2023-01-28T04:58:03;93657.06;;;3.06;100.00
6694;BME280;3384;42.628;23.380;2023-01-28T05:00:30;93652.41;;;3.57;100.00
6694;BME280;3384;42.628;23.380;2023-01-28T05:02:57;93663.16;;;3.12;100.00
6694;BME280;3384;42.628;23.380;2023-01-28T05:05:23;93664.31;;;2.40;100.00
6694;BME280;3384;42.628;23.380;2023-01-28T05:07:51;93670.28;;;3.21;100.00
6694;BME280;3384;42.628;23.380;2023-01-28T05:10:19;93658.84;;;3.36;100.00
6694;BME280;3384;42.628;23.380;2023-01-28T05:12:46;93671.28;;;3.45;100.00
6694;BME280;3384;42.628;23.380;2023-01-28T05:15:16;93677.09;;;3.42;100.00
6694;BME280;3384;42.628;23.380;2023-01-28T05:17:43;93677.53;;;3.69;100.00
6694;BME280;3384;42.628;23.380;2023-01-28T05:20:11;93689.84;;;3.35;100.00
6694;BME280;3384;42.628;23.380;2023-01-28T05:22:38;93678.53;;;3.10;100.00
6694;BME280;3384;42.628;23.380;2023-01-28T05:25:06;93683.00;;;3.24;100.00
6694;BME280;3384;42.628;23.380;2023-01-28T05:27:33;93694.31;;;3.40;100.00
6694;BME280;3384;42.628;23.380;2023-01-28T05:30:01;93683.09;;;3.63;100.00
6694;BME280;3384;42.628;23.380;2023-01-28T05:32:29;93700.22;;;3.90;100.00
6694;BME280;3384;42.628;23.380;2023-01-28T05:34:56;93691.06;;;3.68;100.00
6694;BME280;3384;42.628;23.380;2023-01-28T05:37:22;93701.41;;;3.54;100.00
6694;BME280;3384;42.628;23.380;2023-01-28T05:39:49;93697.06;;;3.00;100.00
6694;BME280;3384;42.628;23.380;2023-01-28T05:42:16;93703.94;;;3.16;100.00
6694;BME280;3384;42.628;23.380;2023-01-28T05:44:45;93711.88;;;2.90;100.00
6694;BME280;3384;42.628;23.380;2023-01-28T05:47:12;93693.56;;;3.29;100.00
6694;BME280;3384;42.628;23.380;2023-01-28T05:49:40;93700.78;;;2.73;100.00
6694;BME280;3384;42.628;23.380;2023-01-28T05:52:07;93696.81;;;3.01;100.00
6694;BME280;3384;42.628;23.380;2023-01-28T05:54:33;93694.44;;;2.24;100.00
6694;BME280;3384;42.628;23.380;2023-01-28T05:57:00;93699.44;;;3.06;100.00
6694;BME280;3384;42.628;23.380;2023-01-28T05:59:27;93711.63;;;2.97;100.00
6694;BME280;3384;42.628;23.380;2023-01-28T06:01:54;93712.75;;;3.70;100.00
6694;BME280;3384;42.628;23.380;2023-01-28T06:04:20;93716.56;;;3.39;100.00
6694;BME280;3384;42.628;23.380;2023-01-28T06:06:48;93732.00;;;2.86;100.00
6694;BME280;3384;42.628;23.380;2023-01-28T06:09:15;93726.97;;;2.40;100.00
6694;BME280;3384;42.628;23.380;2023-01-28T06:11:42;93729.06;;;3.28;100.00
6694;BME280;3384;42.628;23.380;2023-01-28T06:14:10;93725.50;;;3.63;100.00
6694;BME280;3384;42.628;23.380;2023-01-28T06:16:36;93730.41;;;3.89;100.00
6694;BME280;3384;42.628;23.380;2023-01-28T06:19:03;93739.41;;;2.59;100.00
6694;BME280;3384;42.628;23.380;2023-01-28T06:21:30;93754.47;;;2.24;100.00
6694;BME280;3384;42.628;23.380;2023-01-28T06:23:58;93752.09;;;2.37;100.00
6694;BME280;3384;42.628;23.380;2023-01-28T06:26:25;93741.81;;;2.91;100.00
6694;BME280;3384;42.628;23.380;2023-01-28T06:28:52;93772.47;;;2.42;100.00
6694;BME280;3384;42.628;23.380;2023-01-28T06:31:19;93748.94;;;2.50;100.00
6694;BME280;3384;42.628;23.380;2023-01-28T06:33:45;93747.88;;;2.41;100.00
6694;BME280;3384;42.628;23.380;2023-01-28T06:36:12;93759.94;;;2.07;100.00
6694;BME280;3384;42.628;23.380;2023-01-28T06:38:39;93743.31;;;2.12;100.00
6694;BME280;3384;42.628;23.380;2023-01-28T06:41:07;93761.03;;;2.21;100.00
6694;BME280;3384;42.628;23.380;2023-01-28T06:43:34;93762.25;;;1.89;100.00
6694;BME280;3384;42.628;23.380;2023-01-28T06:46:01;93766.09;;;2.33;100.00
6694;BME280;3384;42.628;23.380;2023-01-28T06:48:28;93771.59;;;2.06;100.00
6694;BME280;3384;42.628;23.380;2023-01-28T06:50:55;93762.50;;;1.82;100.00
6694;BME280;3384;42.628;23.380;2023-01-28T06:53:21;93775.56;;;2.14;100.00
6694;BME280;3384;42.628;23.380;2023-01-28T06:55:48;93777.84;;;1.85;100.00
6694;BME280;3384;42.628;23.380;2023-01-28T06:58:17;93787.19;;;2.13;100.00
6694;BME280;3384;42.628;23.380;2023-01-28T07:00:43;93774.00;;;2.23;100.00
6694;BME280;3384;42.628;23.380;2023-01-28T07:03:10;93779.84;;;2.40;100.00
6694;BME280;3384;42.628;23.380;2023-01-28T07:05:37;93785.63;;;2.22;100.00
6694;BME280;3384;42.628;23.380;2023-01-28T07:08:04;93793.66;;;1.75;100.00
6694;BME280;3384;42.628;23.380;2023-01-28T07:10:31;93783.59;;;1.72;100.00
6694;BME280;3384;42.628;23.380;2023-01-28T07:12:58;93785.78;;;1.80;100.00
6694;BME280;3384;42.628;23.380;2023-01-28T07:15:26;93796.97;;;1.51;100.00
6694;BME280;3384;42.628;23.380;2023-01-28T07:17:53;93799.28;;;1.99;100.00
6694;BME280;3384;42.628;23.380;2023-01-28T07:20:20;93807.25;;;2.04;100.00
6694;BME280;3384;42.628;23.380;2023-01-28T07:22:46;93805.28;;;1.74;100.00
6694;BME280;3384;42.628;23.380;2023-01-28T07:25:14;93821.44;;;1.83;100.00
6694;BME280;3384;42.628;23.380;2023-01-28T07:27:46;93815.06;;;1.79;100.00
6694;BME280;3384;42.628;23.380;2023-01-28T07:30:14;93823.31;;;1.97;100.00
6694;BME280;3384;42.628;23.380;2023-01-28T07:32:42;93821.13;;;1.79;100.00
6694;BME280;3384;42.628;23.380;2023-01-28T07:35:09;93829.34;;;1.83;100.00
6694;BME280;3384;42.628;23.380;2023-01-28T07:37:36;93828.28;;;1.79;100.00
6694;BME280;3384;42.628;23.380;2023-01-28T07:40:03;93833.31;;;1.80;100.00
6694;BME280;3384;42.628;23.380;2023-01-28T07:42:30;93831.06;;;1.57;100.00
6694;BME280;3384;42.628;23.380;2023-01-28T07:44:58;93830.38;;;1.82;100.00
6694;BME280;3384;42.628;23.380;2023-01-28T07:47:25;93831.03;;;2.04;100.00
6694;BME280;3384;42.628;23.380;2023-01-28T07:49:55;93837.91;;;2.05;100.00
6694;BME280;3384;42.628;23.380;2023-01-28T07:52:22;93837.03;;;1.89;100.00
6694;BME280;3384;42.628;23.380;2023-01-28T07:54:51;93844.59;;;1.71;100.00
6694;BME280;3384;42.628;23.380;2023-01-28T07:57:17;93835.56;;;2.13;100.00
6694;BME280;3384;42.628;23.380;2023-01-28T07:59:48;93834.53;;;2.24;100.00
6694;BME280;3384;42.628;23.380;2023-01-28T08:02:16;93855.63;;;2.14;100.00
6694;BME280;3384;42.628;23.380;2023-01-28T08:04:43;93856.59;;;1.88;100.00
6694;BME280;3384;42.628;23.380;2023-01-28T08:07:11;93856.00;;;2.38;100.00
6694;BME280;3384;42.628;23.380;2023-01-28T08:09:38;93852.78;;;2.26;100.00
6694;BME280;3384;42.628;23.380;2023-01-28T08:12:05;93853.63;;;1.80;100.00
6694;BME280;3384;42.628;23.380;2023-01-28T08:14:32;93865.13;;;2.05;100.00
6694;BME280;3384;42.628;23.380;2023-01-28T08:16:59;93849.06;;;2.27;100.00
6694;BME280;3384;42.628;23.380;2023-01-28T08:19:26;93853.94;;;1.88;100.00
6694;BME280;3384;42.628;23.380;2023-01-28T08:21:52;93866.78;;;2.21;100.00
6694;BME280;3384;42.628;23.380;2023-01-28T08:24:20;93856.34;;;2.66;100.00
6694;BME280;3384;42.628;23.380;2023-01-28T08:26:49;93859.50;;;2.53;100.00
6694;BME280;3384;42.628;23.380;2023-01-28T08:29:16;93860.84;;;2.71;100.00
6694;BME280;3384;42.628;23.380;2023-01-28T08:31:43;93870.25;;;2.32;100.00
6694;BME280;3384;42.628;23.380;2023-01-28T08:34:10;93860.03;;;2.60;100.00
6694;BME280;3384;42.628;23.380;2023-01-28T08:36:37;93862.72;;;2.70;100.00
6694;BME280;3384;42.628;23.380;2023-01-28T08:39:04;93864.25;;;2.66;100.00
6694;BME280;3384;42.628;23.380;2023-01-28T08:41:32;93867.47;;;2.63;100.00
6694;BME280;3384;42.628;23.380;2023-01-28T08:43:59;93864.81;;;2.63;100.00
6694;BME280;3384;42.628;23.380;2023-01-28T08:46:26;93878.44;;;2.35;100.00
6694;BME280;3384;42.628;23.380;2023-01-28T08:48:52;93864.75;;;2.43;100.00
6694;BME280;3384;42.628;23.380;2023-01-28T08:51:19;93870.63;;;2.65;100.00
6694;BME280;3384;42.628;23.380;2023-01-28T08:53:46;93871.72;;;2.94;100.00
6694;BME280;3384;42.628;23.380;2023-01-28T08:56:13;93879.16;;;3.08;100.00
6694;BME280;3384;42.628;23.380;2023-01-28T08:58:42;93863.53;;;2.86;100.00
6694;BME280;3384;42.628;23.380;2023-01-28T09:01:09;93878.63;;;3.01;100.00
6694;BME280;3384;42.628;23.380;2023-01-28T09:03:38;93886.03;;;2.93;100.00
6694;BME280;3384;42.628;23.380;2023-01-28T09:06:08;93873.88;;;3.13;100.00
6694;BME280;3384;42.628;23.380;2023-01-28T09:08:35;93879.16;;;3.03;100.00
6694;BME280;3384;42.628;23.380;2023-01-28T09:11:02;93862.75;;;3.36;100.00
6694;BME280;3384;42.628;23.380;2023-01-28T09:13:29;93883.41;;;3.04;100.00
6694;BME280;3384;42.628;23.380;2023-01-28T09:15:57;93873.31;;;3.01;100.00
6694;BME280;3384;42.628;23.380;2023-01-28T09:18:24;93879.69;;;3.15;100.00
6694;BME280;3384;42.628;23.380;2023-01-28T09:20:51;93870.72;;;3.31;100.00
6694;BME280;3384;42.628;23.380;2023-01-28T09:23:17;93889.75;;;3.33;100.00
6694;BME280;3384;42.628;23.380;2023-01-28T09:25:44;93882.34;;;3.10;100.00
6694;BME280;3384;42.628;23.380;2023-01-28T09:28:13;93861.16;;;3.05;100.00
6694;BME280;3384;42.628;23.380;2023-01-28T09:31:06;93873.06;;;3.17;100.00
6694;BME280;3384;42.628;23.380;2023-01-28T09:33:34;93898.00;;;3.56;100.00
6694;BME280;3384;42.628;23.380;2023-01-28T09:36:03;93883.94;;;3.21;100.00
6694;BME280;3384;42.628;23.380;2023-01-28T09:38:35;93885.53;;;3.07;100.00
6694;BME280;3384;42.628;23.380;2023-01-28T09:41:18;93890.03;;;3.21;100.00
6694;BME280;3384;42.628;23.380;2023-01-28T09:43:59;93885.22;;;3.03;100.00
6694;BME280;3384;42.628;23.380;2023-01-28T09:46:33;93869.38;;;3.33;100.00
6694;BME280;3384;42.628;23.380;2023-01-28T09:49:31;93865.13;;;3.17;100.00
6694;BME280;3384;42.628;23.380;2023-01-28T09:55:10;93883.16;;;3.15;100.00
6694;BME280;3384;42.628;23.380;2023-01-28T09:57:41;93870.69;;;3.21;100.00
6694;BME280;3384;42.628;23.380;2023-01-28T10:00:40;93877.03;;;3.00;100.00
6694;BME280;3384;42.628;23.380;2023-01-28T10:38:53;93862.66;;;4.06;100.00
6694;BME280;3384;42.628;23.380;2023-01-28T10:44:41;93874.16;;;3.36;100.00
6694;BME280;3384;42.628;23.380;2023-01-28T10:53:43;93879.75;;;4.38;100.00
6694;BME280;3384;42.628;23.380;2023-01-28T10:56:14;93860.91;;;4.45;100.00
6694;BME280;3384;42.628;23.380;2023-01-28T11:05:49;93864.06;;;3.63;100.00
6694;BME280;3384;42.628;23.380;2023-01-28T11:08:17;93857.44;;;3.46;100.00
6694;BME280;3384;42.628;23.380;2023-01-28T11:14:21;93853.91;;;4.64;100.00
6694;BME280;3384;42.628;23.380;2023-01-28T11:24:21;93867.34;;;4.29;100.00
6694;BME280;3384;42.628;23.380;2023-01-28T11:26:53;93865.56;;;3.99;100.00
6694;BME280;3384;42.628;23.380;2023-01-28T11:33:11;93860.41;;;4.38;100.00
6694;BME280;3384;42.628;23.380;2023-01-28T11:39:39;93869.03;;;3.95;100.00
6694;BME280;3384;42.628;23.380;2023-01-28T11:42:15;93862.47;;;4.56;100.00
6694;BME280;3384;42.628;23.380;2023-01-28T11:44:43;93857.56;;;4.19;100.00
6694;BME280;3384;42.628;23.380;2023-01-28T11:57:30;93854.72;;;4.06;100.00
6694;BME280;3384;42.628;23.380;2023-01-28T12:11:16;93865.78;;;4.18;100.00
6694;BME280;3384;42.628;23.380;2023-01-28T12:17:35;93861.09;;;4.58;100.00
6694;BME280;3384;42.628;23.380;2023-01-28T12:21:02;93862.34;;;4.76;100.00
6694;BME280;3384;42.628;23.380;2023-01-28T12:23:54;93853.53;;;4.32;100.00
6694;BME280;3384;42.628;23.380;2023-01-28T12:26:32;93874.09;;;4.65;100.00
6694;BME280;3384;42.628;23.380;2023-01-28T12:29:40;93855.97;;;4.82;100.00
6694;BME280;3384;42.628;23.380;2023-01-28T12:32:27;93863.41;;;4.80;100.00
6694;BME280;3384;42.628;23.380;2023-01-28T12:35:27;93864.84;;;4.57;100.00
6694;BME280;3384;42.628;23.380;2023-01-28T12:38:01;93856.19;;;4.32;100.00
6694;BME280;3384;42.628;23.380;2023-01-28T12:40:55;93858.31;;;4.83;100.00
6694;BME280;3384;42.628;23.380;2023-01-28T12:43:41;93868.84;;;4.50;100.00
6694;BME280;3384;42.628;23.380;2023-01-28T12:46:17;93889.53;;;4.58;100.00
6694;BME280;3384;42.628;23.380;2023-01-28T12:49:17;93874.59;;;4.67;100.00
6694;BME280;3384;42.628;23.380;2023-01-28T12:52:00;93878.59;;;5.13;100.00
6694;BME280;3384;42.628;23.380;2023-01-28T12:54:33;93882.56;;;4.67;100.00
6694;BME280;3384;42.628;23.380;2023-01-28T12:57:02;93882.56;;;4.67;100.00
6694;BME280;3384;42.628;23.380;2023-01-28T12:59:37;93887.03;;;4.76;100.00
6694;BME280;3384;42.628;23.380;2023-01-28T13:02:16;93894.03;;;5.78;100.00
6694;BME280;3384;42.628;23.380;2023-01-28T13:04:50;93888.44;;;5.46;100.00
6694;BME280;3384;42.628;23.380;2023-01-28T13:07:23;93889.59;;;4.38;100.00
6694;BME280;3384;42.628;23.380;2023-01-28T13:09:57;93902.28;;;5.04;100.00
6694;BME280;3384;42.628;23.380;2023-01-28T13:33:47;93911.66;;;4.87;100.00
6694;BME280;3384;42.628;23.380;2023-01-28T13:39:46;93910.97;;;3.68;100.00
6694;BME280;3384;42.628;23.380;2023-01-28T13:45:35;93909.88;;;3.29;100.00
6694;BME280;3384;42.628;23.380;2023-01-28T13:52:05;93919.44;;;3.85;100.00
6694;BME280;3384;42.628;23.380;2023-01-28T13:54:34;93926.34;;;3.41;100.00
6694;BME280;3384;42.628;23.380;2023-01-28T13:57:33;93930.66;;;4.50;100.00
6694;BME280;3384;42.628;23.380;2023-01-28T14:00:12;93941.69;;;3.44;100.00
6694;BME280;3384;42.628;23.380;2023-01-28T14:06:22;93941.44;;;3.60;100.00
6694;BME280;3384;42.628;23.380;2023-01-28T14:18:59;93946.72;;;3.50;100.00
6694;BME280;3384;42.628;23.380;2023-01-28T14:21:31;93953.06;;;3.54;100.00
6694;BME280;3384;42.628;23.380;2023-01-28T14:24:01;93963.94;;;3.53;100.00
6694;BME280;3384;42.628;23.380;2023-01-28T14:26:36;93947.25;;;3.42;100.00
6694;BME280;3384;42.628;23.380;2023-01-28T14:29:17;93966.34;;;3.74;100.00
6694;BME280;3384;42.628;23.380;2023-01-28T14:31:49;93961.31;;;3.68;100.00
6694;BME280;3384;42.628;23.380;2023-01-28T14:34:22;93949.63;;;3.44;100.00
6694;BME280;3384;42.628;23.380;2023-01-28T14:36:51;93954.94;;;3.44;100.00
6694;BME280;3384;42.628;23.380;2023-01-28T14:39:23;93953.31;;;3.18;100.00
6694;BME280;3384;42.628;23.380;2023-01-28T14:41:52;93950.69;;;3.48;100.00
6694;BME280;3384;42.628;23.380;2023-01-28T14:44:27;93976.41;;;3.57;100.00
6694;BME280;3384;42.628;23.380;2023-01-28T14:47:17;93994.69;;;3.54;100.00
6694;BME280;3384;42.628;23.380;2023-01-28T14:50:02;93972.94;;;3.37;100.00
6694;BME280;3384;42.628;23.380;2023-01-28T14:52:44;93977.38;;;3.11;100.00
6694;BME280;3384;42.628;23.380;2023-01-28T14:55:25;93975.28;;;3.23;100.00
6694;BME280;3384;42.628;23.380;2023-01-28T14:57:57;93986.72;;;3.49;100.00
6694;BME280;3384;42.628;23.380;2023-01-28T15:00:27;93974.78;;;3.21;100.00
6694;BME280;3384;42.628;23.380;2023-01-28T15:02:55;93984.84;;;3.24;100.00
6694;BME280;3384;42.628;23.380;2023-01-28T15:05:27;93981.97;;;3.61;100.00
6694;BME280;3384;42.628;23.380;2023-01-28T15:07:55;93986.19;;;3.57;100.00
6694;BME280;3384;42.628;23.380;2023-01-28T15:10:25;93976.66;;;3.51;100.00
6694;BME280;3384;42.628;23.380;2023-01-28T15:12:55;93983.81;;;3.75;100.00
6694;BME280;3384;42.628;23.380;2023-01-28T15:15:28;93988.78;;;3.22;100.00
6694;BME280;3384;42.628;23.380;2023-01-28T15:18:00;93987.78;;;3.58;100.00
6694;BME280;3384;42.628;23.380;2023-01-28T15:20:31;93991.50;;;3.47;100.00
6694;BME280;3384;42.628;23.380;2023-01-28T15:23:00;94002.78;;;3.12;100.00
6694;BME280;3384;42.628;23.380;2023-01-28T15:25:28;93991.41;;;3.12;100.00
6694;BME280;3384;42.628;23.380;2023-01-28T15:27:58;93992.81;;;3.64;100.00
6694;BME280;3384;42.628;23.380;2023-01-28T15:30:28;94009.50;;;3.55;100.00
6694;BME280;3384;42.628;23.380;2023-01-28T15:33:00;93996.28;;;3.85;100.00
6694;BME280;3384;42.628;23.380;2023-01-28T15:35:29;94013.47;;;3.47;100.00
6694;BME280;3384;42.628;23.380;2023-01-28T15:37:56;94005.78;;;3.46;100.00
6694;BME280;3384;42.628;23.380;2023-01-28T15:40:23;94007.06;;;3.23;100.00
6694;BME280;3384;42.628;23.380;2023-01-28T15:42:52;94016.91;;;3.38;100.00
6694;BME280;3384;42.628;23.380;2023-01-28T15:45:23;94027.53;;;3.63;100.00
6694;BME280;3384;42.628;23.380;2023-01-28T15:47:52;94025.44;;;3.65;100.00
6694;BME280;3384;42.628;23.380;2023-01-28T15:50:28;94017.34;;;3.15;100.00
6694;BME280;3384;42.628;23.380;2023-01-28T15:52:55;94024.84;;;3.43;100.00
6694;BME280;3384;42.628;23.380;2023-01-28T15:55:34;94020.16;;;3.85;100.00
6694;BME280;3384;42.628;23.380;2023-01-28T15:58:19;94023.84;;;3.74;100.00
6694;BME280;3384;42.628;23.380;2023-01-28T16:00:47;94029.00;;;3.09;100.00